createdAt,value
2023-08-19T00:01:49.738Z,94388.66
2023-08-19T00:04:16.311Z,94382.72
2023-08-19T00:06:42.965Z,94379.16
2023-08-19T00:09:10.779Z,94387.69
2023-08-19T00:11:39.448Z,94379.66
2023-08-19T00:14:07.387Z,94387.34
2023-08-19T00:16:34.880Z,94383.13
2023-08-19T00:19:02.280Z,94381.97
2023-08-19T00:21:29.227Z,94369.41
2023-08-19T00:23:57.926Z,94373.22
2023-08-19T00:26:26.315Z,94361.97
2023-08-19T00:28:53.440Z,94363.44
2023-08-19T00:31:20.115Z,94367.97
2023-08-19T00:33:46.646Z,94364.09
2023-08-19T00:36:13.512Z,94362.53
2023-08-19T00:38:40.032Z,94355.59
2023-08-19T00:41:06.538Z,94362.41
2023-08-19T00:43:34.853Z,94360.84
2023-08-19T00:46:01.543Z,94359.25
2023-08-19T00:48:31.086Z,94351.25
2023-08-19T00:50:59.799Z,94353.78
2023-08-19T00:53:26.463Z,94350.66
2023-08-19T00:55:53.951Z,94360.06
2023-08-19T00:58:20.750Z,94359.63
2023-08-19T01:00:48.711Z,94361.72
2023-08-19T01:03:15.610Z,94364.19
2023-08-19T01:05:57.055Z,94361.78
2023-08-19T01:08:28.119Z,94369.97
2023-08-19T01:11:06.998Z,94369.00
2023-08-19T01:13:42.467Z,94363.13
2023-08-19T01:16:25.586Z,94356.50
2023-08-19T01:18:53.873Z,94352.88
2023-08-19T01:21:22.146Z,94359.47
2023-08-19T01:23:50.185Z,94353.03
2023-08-19T01:26:19.508Z,94359.28
2023-08-19T01:28:47.501Z,94347.38
2023-08-19T01:31:14.057Z,94353.72
2023-08-19T01:33:41.012Z,94354.69
2023-08-19T01:36:27.462Z,94354.94
2023-08-19T01:39:05.986Z,94356.06
2023-08-19T01:41:34.589Z,94350.78
2023-08-19T01:44:03.013Z,94357.16
2023-08-19T01:46:30.114Z,94350.78
2023-08-19T01:48:56.727Z,94345.47
2023-08-19T01:51:23.414Z,94348.91
2023-08-19T01:53:50.947Z,94348.53
2023-08-19T01:56:17.458Z,94353.16
2023-08-19T01:58:43.994Z,94346.38
2023-08-19T10:00:35.698Z,94523.38
2023-08-19T10:03:03.445Z,94526.72
2023-08-19T10:05:32.779Z,94510.94
2023-08-19T10:08:07.252Z,94512.75
2023-08-19T10:10:37.933Z,94524.94
2023-08-19T10:13:04.885Z,94525.28
2023-08-19T10:15:34.525Z,94521.75
2023-08-19T10:18:05.156Z,94527.69
2023-08-19T10:20:32.601Z,94520.66
2023-08-19T10:23:03.663Z,94514.03
2023-08-19T10:25:31.570Z,94521.44
2023-08-19T10:28:24.776Z,94527.75
2023-08-19T10:31:14.338Z,94521.34
2023-08-19T10:33:45.709Z,94516.59
2023-08-19T10:36:17.576Z,94521.94
2023-08-19T10:38:58.046Z,94518.72
2023-08-19T10:41:34.344Z,94523.28
2023-08-19T10:44:03.080Z,94512.38
2023-08-19T10:46:35.516Z,94512.94
2023-08-19T10:49:04.845Z,94510.53
2023-08-19T10:52:04.642Z,94512.75
2023-08-19T10:54:41.968Z,94510.28
2023-08-19T10:57:23.250Z,94510.28
2023-08-19T10:59:58.123Z,94515.19
2023-08-19T11:02:29.912Z,94523.88
2023-08-19T11:04:58.636Z,94518.22
2023-08-19T11:07:26.596Z,94515.34
2023-08-19T11:09:55.340Z,94515.31
2023-08-19T11:12:23.801Z,94516.69
2023-08-19T11:14:52.126Z,94513.19
2023-08-19T11:17:27.022Z,94518.09
2023-08-19T11:19:53.555Z,94518.44
2023-08-19T11:22:22.117Z,94512.88
2023-08-19T11:24:48.596Z,94518.03
2023-08-19T11:27:15.751Z,94519.50
2023-08-19T11:29:46.241Z,94517.16
2023-08-19T11:32:18.081Z,94524.25
2023-08-19T11:34:44.576Z,94518.19
2023-08-19T11:37:11.059Z,94520.63
2023-08-19T11:39:37.551Z,94521.91
2023-08-19T11:42:04.279Z,94527.75
2023-08-19T11:44:31.744Z,94527.47
2023-08-19T11:46:58.614Z,94527.38
2023-08-19T11:49:29.952Z,94523.31
2023-08-19T11:51:57.108Z,94534.34
2023-08-19T11:54:24.623Z,94527.09
2023-08-19T11:56:56.119Z,94530.13
2023-08-19T11:59:33.499Z,94514.75
2023-08-19T12:02:05.496Z,94526.81
2023-08-19T12:04:34.315Z,94528.59
2023-08-19T12:07:10.651Z,94522.16
2023-08-19T12:09:38.864Z,94525.97
2023-08-19T12:12:10.184Z,94526.13
2023-08-19T12:14:38.868Z,94520.22
2023-08-19T12:17:09.406Z,94527.88
2023-08-19T12:19:36.552Z,94534.75
2023-08-19T12:22:04.850Z,94530.78
2023-08-19T12:24:31.388Z,94531.25
2023-08-19T12:26:57.886Z,94529.66
2023-08-19T12:29:25.136Z,94524.91
2023-08-19T12:31:51.806Z,94525.31
2023-08-19T12:34:18.294Z,94523.50
2023-08-19T12:36:45.279Z,94519.50
2023-08-19T12:39:11.799Z,94518.84
2023-08-19T12:41:38.569Z,94512.47
2023-08-19T12:44:05.409Z,94500.22
2023-08-19T12:46:41.059Z,94516.03
2023-08-19T12:49:07.593Z,94508.25
2023-08-19T12:51:34.386Z,94513.13
2023-08-19T12:54:00.916Z,94526.63
2023-08-19T12:56:27.443Z,94528.81
2023-08-19T12:58:54.935Z,94523.28
2023-08-19T13:01:21.537Z,94523.81
2023-08-19T13:03:48.230Z,94521.09
2023-08-19T13:06:14.863Z,94522.31
2023-08-19T13:08:42.819Z,94516.66
2023-08-19T13:11:09.432Z,94524.88
2023-08-19T13:13:36.153Z,94517.06
2023-08-19T13:16:02.691Z,94519.31
2023-08-19T13:18:29.248Z,94521.03
2023-08-19T13:20:55.711Z,94525.56
2023-08-19T13:23:22.259Z,94519.09
2023-08-19T13:25:49.169Z,94518.25
2023-08-19T13:28:15.665Z,94526.13
2023-08-19T13:30:42.241Z,94517.47
2023-08-19T13:33:08.915Z,94521.78
2023-08-19T13:35:35.633Z,94522.47
2023-08-19T13:38:04.182Z,94513.56
2023-08-19T13:40:30.778Z,94526.94
2023-08-19T13:42:57.245Z,94521.88
2023-08-19T13:45:23.819Z,94521.34
2023-08-19T13:48:04.078Z,94526.94
2023-08-19T13:50:37.613Z,94525.84
2023-08-19T13:53:04.502Z,94525.56
2023-08-19T13:55:30.976Z,94525.56
2023-08-19T13:57:57.882Z,94524.53
2023-08-19T14:00:24.488Z,94529.88
2023-08-19T14:02:51.229Z,94530.59
2023-08-19T14:05:17.998Z,94531.84
2023-08-19T14:07:45.230Z,94525.50
2023-08-19T14:10:12.151Z,94525.22
2023-08-19T14:12:39.578Z,94531.59
2023-08-19T14:15:09.250Z,94528.47
2023-08-19T14:17:36.389Z,94536.38
2023-08-19T14:20:05.183Z,94527.53
2023-08-19T14:22:33.790Z,94531.59
2023-08-19T14:25:00.324Z,94527.31
2023-08-19T14:27:27.256Z,94529.59
2023-08-19T14:29:53.780Z,94524.94
2023-08-19T14:32:20.331Z,94527.03
2023-08-19T14:34:46.845Z,94532.47
2023-08-19T14:37:13.317Z,94530.97
2023-08-19T14:39:39.822Z,94541.09
2023-08-19T14:42:06.534Z,94532.69
2023-08-19T14:44:33.225Z,94531.16
2023-08-19T14:47:00.647Z,94533.41
2023-08-19T14:49:27.214Z,94540.31
2023-08-19T14:51:53.705Z,94539.94
2023-08-19T14:54:20.254Z,94537.47
2023-08-19T14:56:46.873Z,94529.41
2023-08-19T14:59:13.372Z,94533.19
2023-08-19T15:01:39.904Z,94540.06
2023-08-19T15:04:06.815Z,94537.63
2023-08-19T15:06:33.499Z,94531.22
2023-08-19T15:09:01.947Z,94535.25
2023-08-19T15:11:28.476Z,94536.47
2023-08-19T15:13:54.959Z,94530.75
2023-08-19T15:16:21.527Z,94535.09
2023-08-19T15:18:48.033Z,94535.84
2023-08-19T15:21:14.539Z,94526.63
2023-08-19T15:23:41.025Z,94540.16
2023-08-19T15:26:07.524Z,94538.63
2023-08-19T15:28:33.968Z,94535.84
2023-08-19T15:31:00.529Z,94531.06
2023-08-19T15:33:27.102Z,94535.78
2023-08-19T15:35:53.671Z,94534.66
2023-08-19T15:38:20.158Z,94535.34
2023-08-19T15:40:46.658Z,94535.53
2023-08-19T15:43:13.151Z,94544.25
2023-08-19T15:45:39.733Z,94541.28
2023-08-19T15:48:06.541Z,94542.97
2023-08-19T15:50:33.032Z,94535.41
2023-08-19T15:52:59.535Z,94535.84
2023-08-19T15:55:26.037Z,94537.56
2023-08-19T15:57:53.563Z,94545.50
2023-08-19T16:00:20.044Z,94539.84
2023-08-19T16:02:46.589Z,94541.31
2023-08-19T16:05:13.291Z,94541.88
2023-08-19T16:07:40.916Z,94542.75
2023-08-19T16:10:09.130Z,94547.72
2023-08-19T16:12:36.635Z,94548.56
2023-08-19T16:15:03.974Z,94549.75
2023-08-19T16:17:30.946Z,94549.41
2023-08-19T16:19:57.832Z,94544.09
2023-08-19T16:22:24.443Z,94545.75
2023-08-19T16:24:51.033Z,94548.06
2023-08-19T16:27:17.528Z,94548.13
2023-08-19T16:29:44.078Z,94542.16
2023-08-19T16:32:10.650Z,94543.00
2023-08-19T16:34:37.811Z,94550.06
2023-08-19T16:37:06.502Z,94550.25
2023-08-19T16:39:33.196Z,94548.91
2023-08-19T16:41:59.787Z,94548.72
2023-08-19T16:44:26.360Z,94552.72
2023-08-19T16:46:52.876Z,94552.53
2023-08-19T16:49:19.423Z,94560.84
2023-08-19T16:51:45.985Z,94571.75
2023-08-19T16:54:12.512Z,94574.53
2023-08-19T16:56:39.071Z,94576.25
2023-08-19T16:59:05.829Z,94572.50
2023-08-19T17:01:32.345Z,94578.19
2023-08-19T17:03:59.083Z,94585.03
2023-08-19T17:06:25.584Z,94588.84
2023-08-19T17:08:53.058Z,94590.41
2023-08-19T17:11:19.646Z,94598.75
2023-08-19T17:13:46.898Z,94602.84
2023-08-19T17:16:13.446Z,94596.81
2023-08-19T17:18:40.025Z,94604.22
2023-08-19T17:21:06.608Z,94596.75
2023-08-19T17:23:34.078Z,94606.44
2023-08-19T17:26:00.796Z,94611.13
2023-08-19T17:28:27.612Z,94610.09
2023-08-19T17:31:02.792Z,94612.88
2023-08-19T17:33:29.481Z,94615.25
2023-08-19T17:36:00.259Z,94619.09
2023-08-19T17:38:26.999Z,94612.25
2023-08-19T17:41:04.570Z,94623.00
2023-08-19T17:43:31.901Z,94621.56
2023-08-19T17:46:03.867Z,94631.94
2023-08-19T17:48:31.420Z,94627.00
2023-08-19T17:50:58.049Z,94637.34
2023-08-19T17:53:25.701Z,94637.00
2023-08-19T17:56:01.598Z,94640.09
2023-08-19T17:58:30.995Z,94642.81
2023-08-19T18:00:58.965Z,94647.75
2023-08-19T18:03:25.637Z,94651.56
2023-08-19T18:05:52.424Z,94644.28
2023-08-19T18:08:19.181Z,94649.25
2023-08-19T18:10:45.806Z,94648.50
2023-08-19T18:13:12.430Z,94645.84
2023-08-19T18:15:38.964Z,94643.13
2023-08-19T18:18:05.851Z,94642.38
2023-08-19T18:20:32.382Z,94639.69
2023-08-19T18:22:59.682Z,94646.97
2023-08-19T18:25:26.168Z,94636.97
2023-08-19T18:27:52.702Z,94646.91
2023-08-19T18:30:19.436Z,94642.69
2023-08-19T18:32:46.877Z,94648.41
2023-08-19T18:35:14.021Z,94652.56
2023-08-19T18:37:41.907Z,94652.91
2023-08-19T18:40:12.611Z,94645.25
2023-08-19T18:42:40.018Z,94649.03
2023-08-19T18:45:09.220Z,94656.22
2023-08-19T18:48:06.101Z,94657.31
2023-08-19T18:50:34.262Z,94656.16
2023-08-19T18:53:00.956Z,94650.41
2023-08-19T18:55:28.811Z,94653.44
2023-08-19T18:57:55.324Z,94657.59
2023-08-19T19:00:22.057Z,94653.00
2023-08-19T19:02:50.845Z,94656.44
2023-08-19T19:05:18.929Z,94663.63
2023-08-19T19:07:45.572Z,94655.25
2023-08-19T19:10:12.190Z,94660.19
2023-08-19T19:12:38.762Z,94660.94
2023-08-19T19:15:05.984Z,94663.59
2023-08-19T19:17:51.675Z,94671.59
2023-08-19T19:20:18.829Z,94671.53
2023-08-19T19:22:46.029Z,94661.59
2023-08-19T19:25:13.083Z,94668.44
2023-08-19T19:27:39.614Z,94680.63
2023-08-19T19:30:10.377Z,94681.41
2023-08-19T19:32:38.041Z,94688.94
2023-08-19T19:35:08.386Z,94685.09
2023-08-19T19:37:36.626Z,94688.84
2023-08-19T19:40:04.089Z,94689.56
2023-08-19T19:42:30.724Z,94688.78
2023-08-19T19:44:57.269Z,94685.72
2023-08-19T19:47:24.540Z,94681.91
2023-08-19T19:49:51.016Z,94679.22
2023-08-19T19:52:17.539Z,94680.38
2023-08-19T19:54:44.197Z,94688.38
2023-08-19T19:57:10.717Z,94683.38
2023-08-19T19:59:37.215Z,94679.13
2023-08-19T20:02:03.791Z,94682.53
2023-08-19T20:04:30.332Z,94684.78
2023-08-19T20:06:56.835Z,94685.53
2023-08-19T20:09:23.577Z,94678.69
2023-08-19T20:11:50.047Z,94680.56
2023-08-19T20:14:17.063Z,94677.50
2023-08-19T20:16:44.039Z,94679.75
2023-08-19T20:19:14.799Z,94687.31
2023-08-19T20:21:41.683Z,94685.00
2023-08-19T20:24:08.862Z,94683.75
2023-08-19T20:26:35.554Z,94685.66
2023-08-19T20:29:02.291Z,94684.19
2023-08-19T20:31:30.951Z,94686.03
2023-08-19T20:33:58.633Z,94699.00
2023-08-19T20:36:27.568Z,94687.19
2023-08-19T20:38:54.121Z,94685.31
2023-08-19T20:41:20.626Z,94685.31
2023-08-19T20:43:47.262Z,94689.09
2023-08-19T20:46:13.845Z,94681.44
2023-08-19T20:48:40.459Z,94694.34
2023-08-19T20:51:07.407Z,94694.34
2023-08-19T20:53:34.445Z,94680.19
2023-08-19T20:56:01.001Z,94689.78
2023-08-19T20:58:27.526Z,94692.09
2023-08-19T21:00:54.024Z,94692.09
2023-08-19T21:03:23.867Z,94687.13
2023-08-19T21:05:52.281Z,94691.69
2023-08-19T21:08:18.973Z,94698.91
2023-08-19T21:10:45.443Z,94696.25
2023-08-19T21:13:11.994Z,94700.03
2023-08-19T21:15:38.548Z,94707.28
2023-08-19T21:18:05.407Z,94719.06
2023-08-19T21:20:32.017Z,94717.13
2023-08-19T21:22:58.521Z,94719.72
2023-08-19T21:25:25.076Z,94714.75
2023-08-19T21:27:51.639Z,94721.59
2023-08-19T21:30:18.108Z,94717.06
2023-08-19T21:32:44.637Z,94715.47
2023-08-19T21:35:11.147Z,94716.16
2023-08-19T21:37:38.264Z,94711.94
2023-08-19T21:40:05.420Z,94703.97
2023-08-19T21:42:32.065Z,94705.50
2023-08-19T21:44:58.557Z,94702.47
2023-08-19T21:47:25.081Z,94703.25
2023-08-19T21:49:51.571Z,94710.06
2023-08-19T21:52:18.074Z,94722.94
2023-08-19T21:54:45.635Z,94727.75
2023-08-19T21:57:12.144Z,94724.25
2023-08-19T21:59:38.631Z,94729.50
2023-08-19T22:02:05.180Z,94727.88
2023-08-19T22:04:31.741Z,94737.59
2023-08-19T22:06:58.918Z,94735.97
2023-08-19T22:09:25.518Z,94737.81
2023-08-19T22:11:52.026Z,94734.38
2023-08-19T22:14:18.515Z,94734.41
2023-08-19T22:16:45.177Z,94734.00
2023-08-19T22:19:11.683Z,94748.47
2023-08-19T22:21:38.193Z,94744.97
2023-08-19T22:24:05.399Z,94742.25
2023-08-19T22:26:31.894Z,94741.13
2023-08-19T22:28:58.406Z,94744.13
2023-08-19T22:31:24.893Z,94747.16
2023-08-19T22:33:51.523Z,94745.63
2023-08-19T22:36:18.033Z,94750.13
2023-08-19T22:38:44.562Z,94742.88
2023-08-19T22:41:12.007Z,94743.63
2023-08-19T22:43:38.616Z,94735.97
2023-08-19T22:46:05.181Z,94732.47
2023-08-19T22:48:31.745Z,94737.38
2023-08-19T22:50:58.421Z,94738.50
2023-08-19T22:53:24.976Z,94728.56
2023-08-19T22:55:51.470Z,94732.38
2023-08-19T22:58:18.108Z,94733.00
2023-08-19T23:00:44.785Z,94743.66
2023-08-19T23:03:11.313Z,94748.56
2023-08-19T23:05:37.908Z,94743.19
2023-08-19T23:08:04.726Z,94741.22
2023-08-19T23:10:31.555Z,94741.91
2023-08-19T23:12:58.045Z,94725.00
2023-08-19T23:15:24.572Z,94742.22
2023-08-19T23:17:53.796Z,94734.16
2023-08-19T23:22:46.940Z,94724.91
2023-08-19T23:25:13.420Z,94728.69
2023-08-19T23:27:42.532Z,94728.19
2023-08-19T23:30:09.605Z,94739.50
2023-08-19T23:32:36.143Z,94731.44
2023-08-19T23:35:02.666Z,94732.94
2023-08-19T23:37:29.164Z,94734.44
2023-08-19T23:39:55.656Z,94734.44
2023-08-19T23:42:22.228Z,94729.88
2023-08-19T23:44:48.723Z,94730.59
2023-08-19T23:47:15.526Z,94725.28
2023-08-19T23:49:42.271Z,94721.44
2023-08-19T23:52:12.104Z,94714.06
2023-08-19T23:54:39.786Z,94719.38
2023-08-19T23:57:06.857Z,94715.13
2023-08-19T23:59:33.741Z,94715.06
